createdAt,value
2022-10-25T00:01:43.019Z,18.07
2022-10-25T00:04:11.354Z,17.91
2022-10-25T00:06:40.729Z,18.02
2022-10-25T00:09:08.906Z,17.99
2022-10-25T00:11:36.979Z,18.07
2022-10-25T00:14:07.475Z,18.09
2022-10-25T00:16:37.812Z,18.10
2022-10-25T00:19:06.487Z,18.02
2022-10-25T00:21:34.658Z,17.89
2022-10-25T00:24:04.881Z,17.90
2022-10-25T00:26:32.884Z,17.90
2022-10-25T00:29:01.961Z,17.97
2022-10-25T00:31:29.958Z,18.00
2022-10-25T00:33:57.949Z,18.00
2022-10-25T00:36:27.645Z,18.15
2022-10-25T00:38:58.170Z,18.20
2022-10-25T00:41:29.523Z,18.18
2022-10-25T00:44:18.374Z,18.19
2022-10-25T00:46:46.815Z,18.22
2022-10-25T00:49:18.837Z,18.12
2022-10-25T00:51:50.768Z,18.17
2022-10-25T00:54:24.353Z,18.11
2022-10-25T00:56:55.877Z,18.12
2022-10-25T00:59:28.122Z,18.15
2022-10-25T01:01:57.605Z,18.11
2022-10-25T01:04:29.982Z,18.13
2022-10-25T01:06:58.696Z,18.14
2022-10-25T01:09:29.467Z,18.12
2022-10-25T01:11:59.187Z,18.08
2022-10-25T01:14:28.276Z,18.10
2022-10-25T01:17:06.127Z,18.07
2022-10-25T01:19:48.044Z,18.10
2022-10-25T01:22:24.033Z,18.09
2022-10-25T01:25:26.372Z,18.05
2022-10-25T01:28:07.834Z,18.18
2022-10-25T01:31:04.870Z,18.23
2022-10-25T01:33:38.324Z,18.32
2022-10-25T01:36:15.428Z,18.32
2022-10-25T01:38:48.970Z,18.38
2022-10-25T01:41:24.166Z,18.43
2022-10-25T01:44:07.474Z,18.34
2022-10-25T01:46:44.499Z,18.37
2022-10-25T01:49:17.576Z,18.46
2022-10-25T01:51:45.632Z,18.46
2022-10-25T01:54:19.725Z,18.41
2022-10-25T01:56:56.593Z,18.53
2022-10-25T01:59:40.517Z,18.58
2022-10-25T02:02:16.522Z,18.64
2022-10-25T02:04:51.465Z,18.72
2022-10-25T02:07:25.876Z,18.72
2022-10-25T02:10:03.870Z,18.82
2022-10-25T02:12:38.198Z,18.83
2022-10-25T02:15:11.147Z,18.79
2022-10-25T02:17:45.882Z,18.82
2022-10-25T02:20:18.533Z,18.83
2022-10-25T02:22:47.798Z,18.88
2022-10-25T02:25:16.910Z,18.93
2022-10-25T02:27:46.544Z,18.93
2022-10-25T02:30:14.886Z,19.01
2022-10-25T02:32:44.362Z,19.09
2022-10-25T02:35:15.647Z,19.09
2022-10-25T02:37:44.157Z,19.10
2022-10-25T02:40:13.353Z,19.23
2022-10-25T02:42:41.541Z,19.27
2022-10-25T02:45:10.462Z,19.29
2022-10-25T02:47:38.694Z,19.37
2022-10-25T02:50:08.689Z,19.36
2022-10-25T02:52:36.756Z,19.37
2022-10-25T02:55:05.318Z,19.39
2022-10-25T02:57:34.744Z,19.37
2022-10-25T03:00:02.890Z,19.36
2022-10-25T03:02:30.996Z,19.31
2022-10-25T03:04:58.969Z,19.25
2022-10-25T03:07:28.430Z,19.24
2022-10-25T03:09:56.381Z,19.28
2022-10-25T03:12:24.468Z,19.18
2022-10-25T03:14:52.499Z,19.25
2022-10-25T03:17:20.519Z,19.26
2022-10-25T03:19:48.498Z,19.30
2022-10-25T03:22:16.518Z,19.25
2022-10-25T03:24:45.950Z,19.21
2022-10-25T03:27:13.961Z,19.21
2022-10-25T03:29:41.930Z,19.28
2022-10-25T03:32:09.942Z,19.24
2022-10-25T03:34:37.911Z,19.28
2022-10-25T03:37:05.872Z,19.28
2022-10-25T03:39:34.103Z,19.25
2022-10-25T03:42:03.430Z,19.21
2022-10-25T03:44:31.450Z,19.24
2022-10-25T03:46:59.444Z,19.32
2022-10-25T03:49:27.458Z,19.35
2022-10-25T03:51:57.917Z,19.30
2022-10-25T03:54:29.320Z,19.33
2022-10-25T03:56:57.592Z,19.38
2022-10-25T03:59:26.981Z,19.33
2022-10-25T04:01:55.245Z,19.37
2022-10-25T04:04:23.291Z,19.36
2022-10-25T04:06:51.325Z,19.31
2022-10-25T04:09:19.510Z,19.29
2022-10-25T04:11:47.529Z,19.26
2022-10-25T04:14:15.583Z,19.25
2022-10-25T04:16:44.969Z,19.21
2022-10-25T04:19:13.058Z,19.18
2022-10-25T04:21:41.270Z,19.17
2022-10-25T04:24:09.798Z,19.15
2022-10-25T04:26:37.864Z,19.24
2022-10-25T04:29:06.966Z,19.23
2022-10-25T04:31:35.048Z,19.18
2022-10-25T04:34:04.402Z,19.22
2022-10-25T04:36:32.888Z,19.20
2022-10-25T04:39:00.923Z,19.21
2022-10-25T04:41:28.934Z,19.23
2022-10-25T04:43:56.957Z,19.24
2022-10-25T04:46:25.037Z,19.22
2022-10-25T04:48:53.046Z,19.16
2022-10-25T04:51:22.405Z,19.21
2022-10-25T04:53:50.422Z,19.16
2022-10-25T04:56:18.414Z,19.14
2022-10-25T04:58:46.438Z,19.07
2022-10-25T05:01:16.027Z,19.12
2022-10-25T05:03:44.297Z,19.16
2022-10-25T05:06:14.496Z,19.15
2022-10-25T05:08:46.106Z,19.12
2022-10-25T05:11:15.860Z,19.15
2022-10-25T05:13:44.966Z,18.94
2022-10-25T05:16:17.261Z,18.94
2022-10-25T05:18:46.361Z,19.00
2022-10-25T05:21:15.661Z,18.97
2022-10-25T05:23:45.540Z,18.97
2022-10-25T05:26:15.523Z,18.96
2022-10-25T05:28:45.133Z,18.86
2022-10-25T05:31:15.288Z,18.86
2022-10-25T05:33:45.303Z,18.86
2022-10-25T05:36:14.265Z,18.88
2022-10-25T05:38:43.911Z,18.84
2022-10-25T05:41:13.468Z,18.83
2022-10-25T05:43:42.104Z,18.76
2022-10-25T05:46:12.602Z,18.77
2022-10-25T05:48:45.813Z,18.76
2022-10-25T05:51:32.234Z,18.73
2022-10-25T05:54:04.867Z,18.68
2022-10-25T05:56:35.491Z,18.68
2022-10-25T05:59:07.603Z,18.67
2022-10-25T06:01:36.579Z,18.68
2022-10-25T06:04:04.677Z,18.67
2022-10-25T06:06:32.939Z,18.67
2022-10-25T06:09:02.701Z,18.68
2022-10-25T06:11:31.537Z,18.67
2022-10-25T06:13:59.608Z,18.65
2022-10-25T06:16:27.624Z,18.64
2022-10-25T06:18:56.003Z,18.69
2022-10-25T06:21:25.478Z,18.72
2022-10-25T06:23:54.374Z,18.73
2022-10-25T06:26:25.230Z,18.71
2022-10-25T06:28:54.506Z,18.76
2022-10-25T06:31:22.702Z,18.77
2022-10-25T06:33:50.717Z,18.73
2022-10-25T06:36:20.301Z,18.73
2022-10-25T06:38:49.418Z,18.74
2022-10-25T06:41:19.858Z,18.77
2022-10-25T06:43:49.917Z,18.78
2022-10-25T06:46:22.566Z,18.77
2022-10-25T06:48:51.076Z,18.79
2022-10-25T06:51:19.350Z,18.81
2022-10-25T06:53:47.468Z,18.85
2022-10-25T06:56:16.094Z,18.92
2022-10-25T06:58:44.765Z,19.01
2022-10-25T07:01:15.872Z,19.07
2022-10-25T07:03:46.045Z,19.15
2022-10-25T07:06:16.134Z,19.21
2022-10-25T07:08:45.758Z,19.21
2022-10-25T07:11:16.031Z,19.21
2022-10-25T07:13:44.078Z,19.26
2022-10-25T07:16:15.237Z,19.29
2022-10-25T07:18:43.782Z,19.32
2022-10-25T07:21:13.828Z,19.30
2022-10-25T07:23:43.156Z,19.39
2022-10-25T07:26:12.748Z,19.44
2022-10-25T07:28:41.272Z,19.55
2022-10-25T07:31:09.360Z,19.51
2022-10-25T07:33:38.734Z,19.50
2022-10-25T07:36:11.265Z,19.54
2022-10-25T07:38:39.870Z,19.61
2022-10-25T07:41:08.869Z,19.67
2022-10-25T07:43:37.055Z,19.63
2022-10-25T07:46:05.914Z,19.62
2022-10-25T07:48:34.401Z,19.66
2022-10-25T07:51:06.113Z,19.63
2022-10-25T07:53:34.130Z,19.71
2022-10-25T07:56:02.276Z,19.74
2022-10-25T07:58:30.522Z,19.73
2022-10-25T08:01:03.208Z,19.80
2022-10-25T08:03:31.826Z,19.81
2022-10-25T08:06:00.136Z,19.83
2022-10-25T08:08:29.793Z,19.84
2022-10-25T08:10:59.539Z,19.89
2022-10-25T08:13:27.574Z,19.94
2022-10-25T08:15:57.254Z,19.98
2022-10-25T08:18:25.354Z,19.92
2022-10-25T08:21:02.779Z,19.89
2022-10-25T08:23:33.606Z,19.88
2022-10-25T08:26:01.801Z,19.92
2022-10-25T08:28:31.321Z,19.95
2022-10-25T08:31:01.069Z,20.04
2022-10-25T08:33:30.118Z,20.16
2022-10-25T08:36:01.181Z,20.20
2022-10-25T08:38:29.356Z,20.26
2022-10-25T08:41:10.065Z,20.32
2022-10-25T08:44:08.740Z,20.42
2022-10-25T08:46:41.940Z,20.53
2022-10-25T08:49:20.409Z,20.49
2022-10-25T08:51:50.668Z,20.56
2022-10-25T08:54:29.570Z,20.56
2022-10-25T08:57:15.909Z,20.53
2022-10-25T08:59:48.329Z,20.49
2022-10-25T09:02:26.367Z,20.49
2022-10-25T09:04:55.761Z,20.56
2022-10-25T09:07:50.451Z,20.66
2022-10-25T09:10:28.613Z,20.71
2022-10-25T09:13:08.435Z,20.79
2022-10-25T09:15:54.663Z,20.87
2022-10-25T09:18:32.810Z,21.23
2022-10-25T09:21:07.670Z,21.48
2022-10-25T09:23:37.905Z,21.69
2022-10-25T09:26:13.565Z,21.96
2022-10-25T09:28:52.505Z,22.10
2022-10-25T09:31:24.738Z,22.17
2022-10-25T09:34:04.077Z,22.31
2022-10-25T09:36:39.296Z,22.31
2022-10-25T09:39:16.725Z,22.21
2022-10-25T09:41:48.945Z,22.20
2022-10-25T09:44:27.197Z,22.52
2022-10-25T09:46:59.473Z,22.40
2022-10-25T09:49:33.261Z,22.44
2022-10-25T09:52:11.510Z,22.80
2022-10-25T09:54:43.127Z,22.84
2022-10-25T09:57:11.138Z,22.84
2022-10-25T09:59:40.565Z,22.90
2022-10-25T10:02:16.115Z,22.39
2022-10-25T10:04:44.169Z,22.22
2022-10-25T10:07:19.348Z,22.16
2022-10-25T10:09:51.874Z,22.17
2022-10-25T10:12:24.824Z,22.49
2022-10-25T10:14:59.834Z,22.86
2022-10-25T10:17:30.685Z,22.82
2022-10-25T10:20:11.430Z,22.63
2022-10-25T10:22:45.505Z,22.43
2022-10-25T10:25:18.456Z,22.49
2022-10-25T10:27:48.801Z,22.41
2022-10-25T10:30:28.791Z,22.34
2022-10-25T10:33:00.413Z,22.76
2022-10-25T10:35:33.730Z,23.13
2022-10-25T10:38:24.720Z,23.29
2022-10-25T10:40:55.831Z,23.77
2022-10-25T10:43:32.640Z,23.99
2022-10-25T10:46:09.648Z,23.72
2022-10-25T10:48:43.261Z,23.90
2022-10-25T10:51:25.514Z,23.71
2022-10-25T10:54:25.271Z,23.67
2022-10-25T10:57:01.526Z,23.96
2022-10-25T10:59:37.524Z,24.18
2022-10-25T11:02:25.540Z,24.32
2022-10-25T11:04:55.874Z,24.60
2022-10-25T11:07:35.240Z,24.28
2022-10-25T11:10:24.871Z,23.58
2022-10-25T11:13:14.109Z,23.03
2022-10-25T11:16:10.225Z,22.79
2022-10-25T11:18:50.949Z,22.60
2022-10-25T11:21:36.382Z,22.56
2022-10-25T11:24:14.829Z,22.42
2022-10-25T11:26:54.286Z,22.54
2022-10-25T11:29:41.675Z,22.61
2022-10-25T11:32:26.627Z,22.50
2022-10-25T11:35:06.590Z,22.36
2022-10-25T11:37:42.123Z,22.86
2022-10-25T11:40:16.563Z,23.91
2022-10-25T11:42:58.682Z,24.40
2022-10-25T11:45:35.726Z,24.60
2022-10-25T11:48:23.997Z,24.24
2022-10-25T11:51:00.102Z,23.88
2022-10-25T11:53:44.237Z,23.80
2022-10-25T11:56:22.134Z,24.28
2022-10-25T11:58:59.309Z,24.53
2022-10-25T12:01:45.124Z,24.23
2022-10-25T12:04:29.510Z,23.84
2022-10-25T12:07:07.458Z,23.77
2022-10-25T12:09:43.582Z,23.59
2022-10-25T12:12:15.766Z,23.52
2022-10-25T12:14:48.614Z,23.67
2022-10-25T12:17:32.278Z,23.53
2022-10-25T12:20:03.142Z,23.54
2022-10-25T12:22:38.250Z,23.46
2022-10-25T12:25:14.887Z,23.25
2022-10-25T12:27:48.086Z,23.09
2022-10-25T12:30:18.554Z,22.99
2022-10-25T12:32:52.517Z,22.91
2022-10-25T12:35:24.178Z,22.80
2022-10-25T12:37:58.879Z,22.82
2022-10-25T12:40:29.680Z,23.80
2022-10-25T12:43:01.022Z,24.66
2022-10-25T12:45:47.710Z,25.50
2022-10-25T12:48:31.487Z,25.54
2022-10-25T12:51:20.972Z,25.43
2022-10-25T12:54:10.429Z,25.86
2022-10-25T12:56:49.711Z,26.15
2022-10-25T12:59:36.849Z,25.64
2022-10-25T13:02:20.190Z,25.03
2022-10-25T13:05:12.640Z,24.49
2022-10-25T13:07:40.749Z,24.05
2022-10-25T13:10:19.091Z,23.74
2022-10-25T13:13:00.084Z,23.50
2022-10-25T13:15:40.276Z,23.36
2022-10-25T13:18:27.194Z,23.89
2022-10-25T13:20:55.482Z,24.84
2022-10-25T13:24:03.689Z,25.23
2022-10-25T13:27:11.095Z,24.66
2022-10-25T13:30:23.655Z,24.00
2022-10-25T13:33:29.413Z,23.58
2022-10-25T13:36:02.791Z,23.27
2022-10-25T13:38:38.871Z,23.01
2022-10-25T13:41:12.881Z,22.85
2022-10-25T13:44:03.641Z,22.64
2022-10-25T13:46:35.903Z,22.53
2022-10-25T13:49:20.425Z,22.46
2022-10-25T13:51:48.822Z,22.36
2022-10-25T13:54:17.548Z,22.57
2022-10-25T13:56:53.673Z,23.23
2022-10-25T14:00:02.571Z,24.26
2022-10-25T14:03:05.151Z,24.79
2022-10-25T14:06:13.017Z,25.21
2022-10-25T14:08:52.391Z,24.98
2022-10-25T14:11:24.713Z,24.47
2022-10-25T14:13:56.742Z,24.21
2022-10-25T14:16:32.250Z,24.50
2022-10-25T14:19:06.252Z,24.77
2022-10-25T14:21:34.851Z,25.00
2022-10-25T14:24:12.153Z,25.29
2022-10-25T14:26:51.959Z,25.57
2022-10-25T14:29:23.215Z,25.65
2022-10-25T14:31:53.490Z,25.63
2022-10-25T14:34:23.405Z,25.53
2022-10-25T14:36:53.243Z,25.32
2022-10-25T14:39:24.194Z,25.18
2022-10-25T14:41:54.435Z,25.18
2022-10-25T14:44:25.557Z,25.15
2022-10-25T14:46:56.441Z,25.03
2022-10-25T14:49:25.447Z,25.01
2022-10-25T14:51:56.514Z,24.99
2022-10-25T14:54:28.216Z,24.88
2022-10-25T14:56:59.090Z,24.64
2022-10-25T14:59:30.068Z,24.43
2022-10-25T15:02:02.554Z,24.26
2022-10-25T15:04:33.890Z,24.08
2022-10-25T15:07:03.507Z,23.81
2022-10-25T15:09:49.023Z,23.51
2022-10-25T15:12:20.499Z,23.26
2022-10-25T15:14:48.834Z,23.03
2022-10-25T15:17:25.391Z,22.94
2022-10-25T15:20:06.428Z,22.76
2022-10-25T15:22:43.197Z,22.60
2022-10-25T15:25:30.202Z,22.44
2022-10-25T15:28:09.195Z,22.38
2022-10-25T15:30:39.374Z,22.34
2022-10-25T15:33:12.685Z,22.21
2022-10-25T15:35:47.434Z,22.19
2022-10-25T15:38:17.383Z,22.10
2022-10-25T15:40:45.886Z,22.03
2022-10-25T15:43:13.981Z,21.90
2022-10-25T15:45:42.651Z,21.84
2022-10-25T15:48:15.735Z,21.75
2022-10-25T15:50:47.817Z,21.65
2022-10-25T15:53:15.831Z,21.58
2022-10-25T15:55:44.291Z,21.53
2022-10-25T15:58:12.279Z,21.48
2022-10-25T16:00:40.519Z,21.43
2022-10-25T16:03:09.486Z,21.34
2022-10-25T16:05:39.722Z,21.22
2022-10-25T16:08:08.647Z,21.15
2022-10-25T16:10:37.671Z,21.06
2022-10-25T16:13:07.867Z,21.00
2022-10-25T16:15:35.846Z,20.90
2022-10-25T16:18:04.191Z,20.83
2022-10-25T16:20:32.781Z,20.76
2022-10-25T16:23:02.185Z,20.72
2022-10-25T16:25:33.070Z,20.64
2022-10-25T16:28:01.970Z,20.60
2022-10-25T16:30:33.989Z,20.57
2022-10-25T16:33:02.126Z,20.50
2022-10-25T16:35:30.122Z,20.37
2022-10-25T16:37:58.416Z,20.27
2022-10-25T16:40:28.937Z,20.15
2022-10-25T16:42:58.341Z,20.06
2022-10-25T16:45:29.046Z,19.98
2022-10-25T16:47:57.968Z,19.89
2022-10-25T16:50:27.015Z,19.79
2022-10-25T16:52:57.506Z,19.73
2022-10-25T16:55:28.799Z,19.67
2022-10-25T16:57:56.927Z,19.66
2022-10-25T17:00:25.202Z,19.61
2022-10-25T17:02:53.225Z,19.58
2022-10-25T17:05:23.441Z,19.53
2022-10-25T17:07:52.218Z,19.53
2022-10-25T17:10:22.138Z,19.48
2022-10-25T17:12:53.314Z,19.46
2022-10-25T17:15:22.387Z,19.46
2022-10-25T17:17:50.781Z,19.45
2022-10-25T17:20:19.080Z,19.43
2022-10-25T17:22:48.795Z,19.43
2022-10-25T17:25:17.418Z,19.39
2022-10-25T17:27:48.076Z,19.36
2022-10-25T17:30:18.263Z,19.37
2022-10-25T17:32:46.346Z,19.38
2022-10-25T17:35:14.549Z,19.30
2022-10-25T17:37:43.988Z,19.32
2022-10-25T17:40:13.763Z,19.30
2022-10-25T17:42:41.814Z,19.30
2022-10-25T17:45:10.787Z,19.26
2022-10-25T17:47:42.564Z,19.25
2022-10-25T17:50:12.859Z,19.24
2022-10-25T17:52:42.315Z,19.22
2022-10-25T17:55:11.785Z,19.21
2022-10-25T17:57:39.785Z,19.17
2022-10-25T18:00:09.103Z,19.17
2022-10-25T18:02:50.555Z,19.12
2022-10-25T18:05:20.983Z,19.07
2022-10-25T18:07:50.263Z,19.03
2022-10-25T18:10:18.503Z,19.01
2022-10-25T18:12:47.019Z,19.00
2022-10-25T18:15:15.245Z,18.99
2022-10-25T18:17:46.302Z,18.97
2022-10-25T18:20:16.305Z,18.93
2022-10-25T18:22:44.352Z,18.89
2022-10-25T18:25:12.737Z,18.86
2022-10-25T18:27:40.734Z,18.86
2022-10-25T18:30:10.226Z,18.85
2022-10-25T18:32:38.199Z,18.85
2022-10-25T18:35:06.746Z,18.85
2022-10-25T18:37:36.110Z,18.84
2022-10-25T18:40:04.393Z,18.81
2022-10-25T18:42:32.378Z,18.83
2022-10-25T18:45:00.408Z,18.85
2022-10-25T18:47:28.498Z,18.82
2022-10-25T18:49:56.531Z,18.81
2022-10-25T18:52:24.729Z,18.78
2022-10-25T18:54:54.496Z,18.72
2022-10-25T18:57:22.502Z,18.72
2022-10-25T18:59:50.538Z,18.73
2022-10-25T19:02:18.647Z,18.70
2022-10-25T19:04:46.685Z,18.68
2022-10-25T19:07:14.665Z,18.62
2022-10-25T19:09:42.691Z,18.57
2022-10-25T19:12:12.075Z,18.56
2022-10-25T19:14:40.111Z,18.59
2022-10-25T19:17:09.298Z,18.61
2022-10-25T19:19:37.251Z,18.57
2022-10-25T19:22:05.250Z,18.59
2022-10-25T19:24:33.631Z,18.59
2022-10-25T19:27:01.626Z,18.56
2022-10-25T19:29:30.998Z,18.54
2022-10-25T19:31:58.973Z,18.56
2022-10-25T19:34:27.102Z,18.52
2022-10-25T19:36:56.713Z,18.52
2022-10-25T19:39:25.505Z,18.49
2022-10-25T19:41:53.489Z,18.48
2022-10-25T19:44:21.513Z,18.46
2022-10-25T19:46:51.682Z,18.47
2022-10-25T19:49:19.705Z,18.48
2022-10-25T19:51:47.739Z,18.49
2022-10-25T19:54:15.854Z,18.43
2022-10-25T19:56:43.844Z,18.38
2022-10-25T19:59:12.422Z,18.40
2022-10-25T20:01:40.612Z,18.36
2022-10-25T20:04:11.342Z,18.33
2022-10-25T20:06:39.341Z,18.36
2022-10-25T20:09:09.878Z,18.35
2022-10-25T20:11:38.012Z,18.34
2022-10-25T20:14:06.052Z,18.30
2022-10-25T20:16:34.183Z,18.28
2022-10-25T20:19:03.407Z,18.26
2022-10-25T20:21:35.138Z,18.24
2022-10-25T20:24:05.346Z,18.26
2022-10-25T20:26:35.316Z,18.25
2022-10-25T20:29:05.353Z,18.22
2022-10-25T20:31:34.681Z,18.23
2022-10-25T20:34:03.204Z,18.23
2022-10-25T20:36:32.809Z,18.21
2022-10-25T20:39:00.814Z,18.17
2022-10-25T20:41:30.281Z,18.21
2022-10-25T20:44:00.336Z,18.23
2022-10-25T20:46:29.876Z,18.21
2022-10-25T20:48:58.454Z,18.23
2022-10-25T20:51:27.150Z,18.20
2022-10-25T20:53:56.957Z,18.21
2022-10-25T20:56:25.713Z,18.18
2022-10-25T20:58:53.749Z,18.13
2022-10-25T21:01:21.870Z,18.07
2022-10-25T21:03:49.977Z,18.04
2022-10-25T21:06:17.990Z,17.98
2022-10-25T21:08:46.011Z,17.94
2022-10-25T21:11:15.401Z,17.90
2022-10-25T21:13:43.462Z,17.84
2022-10-25T21:16:13.080Z,17.82
2022-10-25T21:18:41.414Z,17.74
2022-10-25T21:21:11.882Z,17.74
2022-10-25T21:23:39.982Z,17.72
2022-10-25T21:26:09.976Z,17.68
2022-10-25T21:28:41.213Z,17.68
2022-10-25T21:31:11.934Z,17.69
2022-10-25T21:33:41.751Z,17.68
2022-10-25T21:36:12.408Z,17.68
2022-10-25T21:38:40.819Z,17.69
2022-10-25T21:41:10.498Z,17.70
2022-10-25T21:43:43.783Z,17.67
2022-10-25T21:46:12.618Z,17.67
2022-10-25T21:48:40.674Z,17.66
2022-10-25T21:51:09.331Z,17.65
2022-10-25T21:53:37.357Z,17.67
2022-10-25T21:56:07.622Z,17.65
2022-10-25T21:58:35.673Z,17.62
2022-10-25T22:01:08.546Z,17.58
2022-10-25T22:03:36.634Z,17.52
2022-10-25T22:06:06.715Z,17.47
2022-10-25T22:08:34.870Z,17.41
2022-10-25T22:11:04.883Z,17.40
2022-10-25T22:13:32.963Z,17.33
2022-10-25T22:16:02.949Z,17.33
2022-10-25T22:18:32.736Z,17.25
2022-10-25T22:21:02.914Z,17.22
2022-10-25T22:23:32.403Z,17.22
2022-10-25T22:26:02.792Z,17.19
2022-10-25T22:28:31.179Z,17.13
2022-10-25T22:31:01.936Z,17.07
2022-10-25T22:33:30.676Z,17.05
2022-10-25T22:38:38.359Z,16.99
2022-10-25T22:41:08.508Z,16.96
2022-10-25T22:43:37.450Z,16.93
2022-10-25T22:46:07.399Z,16.90
2022-10-25T22:48:37.143Z,16.86
2022-10-25T22:51:07.253Z,16.80
2022-10-25T22:53:36.093Z,16.78
2022-10-25T22:56:06.857Z,16.75
2022-10-25T22:58:36.398Z,16.71
2022-10-25T23:01:06.625Z,16.67
2022-10-25T23:03:34.781Z,16.63
2022-10-25T23:06:03.473Z,16.59
2022-10-25T23:08:33.028Z,16.59
2022-10-25T23:11:02.981Z,16.60
2022-10-25T23:13:32.745Z,16.55
2022-10-25T23:16:01.276Z,16.52
2022-10-25T23:18:29.370Z,16.49
2022-10-25T23:20:59.165Z,16.47
2022-10-25T23:23:28.125Z,16.43
2022-10-25T23:26:00.546Z,16.40
2022-10-25T23:28:31.140Z,16.37
2022-10-25T23:31:05.286Z,16.34
2022-10-25T23:33:33.481Z,16.33
2022-10-25T23:36:05.488Z,16.32
2022-10-25T23:38:33.559Z,16.33
2022-10-25T23:41:02.922Z,16.31
2022-10-25T23:43:31.483Z,16.32
2022-10-25T23:45:59.798Z,16.35
2022-10-25T23:48:27.929Z,16.37
2022-10-25T23:50:57.467Z,16.35
2022-10-25T23:53:26.181Z,16.35
2022-10-25T23:55:55.301Z,16.34
2022-10-25T23:58:25.105Z,16.36
